createdAt,value
2017-11-29T00:01:29.503Z,47.10
2017-11-29T00:03:30.538Z,46.60
2017-11-29T00:05:31.570Z,36.13
2017-11-29T00:07:33.361Z,42.80
2017-11-29T00:09:34.348Z,49.37
2017-11-29T00:11:35.510Z,47.00
2017-11-29T00:13:36.606Z,43.53
2017-11-29T00:15:37.567Z,44.80
2017-11-29T00:17:38.526Z,38.50
2017-11-29T00:19:39.517Z,44.93
2017-11-29T00:21:40.485Z,48.07
2017-11-29T00:23:42.050Z,44.70
2017-11-29T00:25:43.033Z,39.30
2017-11-29T00:27:44.006Z,50.13
2017-11-29T00:29:44.996Z,47.40
2017-11-29T00:31:45.989Z,48.83
2017-11-29T00:33:47.005Z,56.63
2017-11-29T00:35:47.985Z,53.00
2017-11-29T00:37:48.997Z,42.37
2017-11-29T00:39:49.990Z,41.53
2017-11-29T00:41:50.945Z,36.53
2017-11-29T00:43:52.032Z,47.93
2017-11-29T00:45:53.078Z,44.07
2017-11-29T00:47:54.069Z,47.30
2017-11-29T00:49:55.065Z,45.23
2017-11-29T00:51:56.059Z,40.80
2017-11-29T00:53:57.036Z,37.63
2017-11-29T00:55:57.969Z,48.77
2017-11-29T00:57:58.974Z,41.67
2017-11-29T00:59:59.912Z,43.33
2017-11-29T01:02:00.899Z,39.00
2017-11-29T01:04:01.933Z,43.93
2017-11-29T01:06:02.923Z,57.83
2017-11-29T01:08:03.919Z,47.43
2017-11-29T01:10:04.935Z,49.43
2017-11-29T01:12:06.020Z,47.37
2017-11-29T01:14:06.973Z,46.20
2017-11-29T01:16:07.957Z,42.87
2017-11-29T01:18:09.796Z,45.93
2017-11-29T01:20:10.769Z,42.43
2017-11-29T01:22:12.465Z,37.03
2017-11-29T01:24:13.449Z,45.53
2017-11-29T01:26:14.433Z,41.77
2017-11-29T01:28:15.390Z,57.90
2017-11-29T01:30:16.425Z,42.53
2017-11-29T01:32:17.393Z,35.47
2017-11-29T01:34:18.374Z,36.30
2017-11-29T01:36:19.399Z,32.80
2017-11-29T01:38:20.637Z,47.80
2017-11-29T01:40:21.596Z,50.43
2017-11-29T01:42:22.595Z,42.17
2017-11-29T01:44:23.626Z,42.50
2017-11-29T01:46:24.703Z,40.50
2017-11-29T01:48:25.738Z,43.77
2017-11-29T01:50:26.757Z,37.80
2017-11-29T01:52:27.742Z,41.33
2017-11-29T01:54:29.815Z,46.50
2017-11-29T01:56:30.800Z,47.37
2017-11-29T01:58:31.822Z,37.20
2017-11-29T02:00:45.102Z,41.23
2017-11-29T02:02:47.472Z,41.13
2017-11-29T02:04:48.568Z,32.20
2017-11-29T02:06:49.561Z,43.33
2017-11-29T02:08:50.638Z,47.07
2017-11-29T02:10:51.612Z,34.77
2017-11-29T02:12:53.380Z,32.87
2017-11-29T02:14:54.460Z,30.10
2017-11-29T02:16:55.528Z,37.00
2017-11-29T02:18:56.497Z,30.10
2017-11-29T02:20:57.473Z,31.40
2017-11-29T02:22:58.518Z,40.57
2017-11-29T02:24:59.506Z,38.40
2017-11-29T02:27:00.566Z,42.73
2017-11-29T02:29:01.711Z,36.97
2017-11-29T02:31:02.750Z,40.37
2017-11-29T02:33:03.792Z,41.63
2017-11-29T02:35:04.786Z,29.73
2017-11-29T02:37:06.615Z,31.03
2017-11-29T02:39:08.077Z,34.83
2017-11-29T02:41:22.575Z,40.47
2017-11-29T02:43:23.691Z,40.43
2017-11-29T02:45:24.655Z,42.83
2017-11-29T02:47:25.638Z,31.43
2017-11-29T02:49:26.689Z,45.10
2017-11-29T02:51:27.785Z,45.23
2017-11-29T02:53:28.896Z,44.83
2017-11-29T02:55:29.956Z,46.30
2017-11-29T02:57:30.969Z,40.73
2017-11-29T02:59:32.091Z,44.13
2017-11-29T03:01:33.182Z,40.57
2017-11-29T03:03:34.185Z,44.40
2017-11-29T03:05:35.804Z,45.13
2017-11-29T03:07:36.780Z,52.57
2017-11-29T03:09:37.800Z,53.37
2017-11-29T03:11:38.808Z,43.37
2017-11-29T03:13:40.538Z,39.70
2017-11-29T03:15:41.526Z,39.63
2017-11-29T03:17:42.511Z,44.73
2017-11-29T03:19:43.524Z,45.23
2017-11-29T03:21:44.485Z,44.50
2017-11-29T03:23:45.496Z,45.17
2017-11-29T03:25:46.464Z,44.80
2017-11-29T03:27:47.470Z,52.03
2017-11-29T03:29:49.260Z,49.40
2017-11-29T03:31:50.266Z,44.90
2017-11-29T03:33:51.327Z,53.10
2017-11-29T03:35:52.350Z,44.73
2017-11-29T03:37:53.318Z,46.47
2017-11-29T03:39:54.292Z,40.30
2017-11-29T03:41:55.273Z,52.70
2017-11-29T03:43:56.289Z,51.00
2017-11-29T03:45:57.261Z,53.23
2017-11-29T03:47:58.223Z,48.17
2017-11-29T03:49:59.326Z,39.73
2017-11-29T03:52:01.037Z,54.17
2017-11-29T03:54:02.052Z,46.17
2017-11-29T03:56:03.049Z,46.57
2017-11-29T03:58:04.021Z,48.40
2017-11-29T04:00:05.744Z,47.30
2017-11-29T04:02:06.744Z,48.10
2017-11-29T04:04:07.708Z,53.83
2017-11-29T04:06:08.781Z,42.50
2017-11-29T04:08:09.732Z,57.23
2017-11-29T04:10:10.829Z,54.00
2017-11-29T04:12:11.952Z,50.87
2017-11-29T04:14:13.004Z,45.33
2017-11-29T04:16:13.965Z,53.07
2017-11-29T04:18:14.988Z,50.93
2017-11-29T04:20:15.988Z,53.03
2017-11-29T04:22:17.070Z,50.00
2017-11-29T04:24:18.061Z,52.80
2017-11-29T04:26:19.057Z,44.60
2017-11-29T04:28:20.092Z,46.47
2017-11-29T04:30:21.062Z,52.77
2017-11-29T04:32:22.039Z,42.30
2017-11-29T04:34:23.012Z,52.83
2017-11-29T04:36:23.997Z,49.53
2017-11-29T04:38:24.982Z,63.50
2017-11-29T04:40:29.005Z,53.70
2017-11-29T04:42:30.021Z,57.17
2017-11-29T04:44:31.029Z,53.50
2017-11-29T04:46:32.509Z,47.93
2017-11-29T04:48:33.540Z,38.13
2017-11-29T04:50:34.513Z,45.70
2017-11-29T04:52:35.673Z,36.10
2017-11-29T04:54:36.658Z,40.93
2017-11-29T04:56:37.705Z,42.97
2017-11-29T04:58:38.726Z,45.03
2017-11-29T05:00:39.831Z,49.07
2017-11-29T05:02:40.787Z,39.77
2017-11-29T05:04:41.807Z,36.70
2017-11-29T05:06:42.789Z,38.53
2017-11-29T05:08:43.760Z,41.60
2017-11-29T05:10:44.795Z,33.70
2017-11-29T05:12:45.817Z,45.57
2017-11-29T05:14:46.817Z,39.93
2017-11-29T05:16:47.835Z,35.20
2017-11-29T05:18:48.818Z,42.43
2017-11-29T05:20:49.817Z,37.80
2017-11-29T05:22:50.828Z,34.20
2017-11-29T05:24:51.958Z,36.83
2017-11-29T05:26:53.833Z,31.57
2017-11-29T05:28:54.814Z,37.13
2017-11-29T05:30:55.822Z,32.47
2017-11-29T05:32:56.796Z,37.80
2017-11-29T05:34:58.522Z,29.47
2017-11-29T05:37:00.230Z,30.97
2017-11-29T05:39:01.213Z,45.33
2017-11-29T05:41:02.233Z,32.57
2017-11-29T05:43:03.214Z,27.53
2017-11-29T05:45:04.597Z,30.90
2017-11-29T05:47:05.603Z,53.47
2017-11-29T05:49:06.653Z,31.87
2017-11-29T05:51:07.645Z,38.70
2017-11-29T05:53:08.676Z,30.63
2017-11-29T05:55:09.645Z,30.10
2017-11-29T05:57:10.628Z,34.57
2017-11-29T05:59:11.612Z,31.07
2017-11-29T06:01:13.514Z,24.43
2017-11-29T06:03:15.078Z,35.43
2017-11-29T06:05:16.074Z,32.03
2017-11-29T06:07:17.065Z,38.47
2017-11-29T06:09:18.074Z,36.93
2017-11-29T06:11:19.082Z,33.00
2017-11-29T06:13:20.142Z,38.87
2017-11-29T06:15:21.199Z,33.57
2017-11-29T06:17:22.165Z,33.43
2017-11-29T06:19:23.120Z,38.43
2017-11-29T06:21:24.860Z,34.63
2017-11-29T06:23:25.840Z,38.47
2017-11-29T06:25:27.537Z,39.53
2017-11-29T06:27:28.523Z,38.73
2017-11-29T06:29:29.503Z,37.47
2017-11-29T06:31:30.468Z,38.87
2017-11-29T06:33:31.463Z,34.00
2017-11-29T06:35:32.444Z,38.50
2017-11-29T06:37:33.522Z,46.23
2017-11-29T06:39:34.508Z,34.93
2017-11-29T06:41:36.309Z,45.37
2017-11-29T06:43:37.312Z,36.23
2017-11-29T06:45:38.283Z,37.23
2017-11-29T06:47:39.306Z,39.40
2017-11-29T06:49:41.065Z,44.33
2017-11-29T06:51:42.049Z,36.87
2017-11-29T06:53:43.016Z,41.37
2017-11-29T06:55:44.004Z,40.13
2017-11-29T06:57:45.014Z,45.23
2017-11-29T06:59:46.068Z,43.90
2017-11-29T07:01:47.242Z,36.80
2017-11-29T07:03:48.244Z,46.07
2017-11-29T07:05:49.243Z,42.40
2017-11-29T07:07:50.310Z,42.13
2017-11-29T07:09:51.370Z,41.73
2017-11-29T07:11:52.372Z,42.93
2017-11-29T07:13:53.363Z,42.87
2017-11-29T07:15:54.315Z,41.30
2017-11-29T07:17:55.269Z,44.00
2017-11-29T07:19:56.224Z,36.93
2017-11-29T07:21:57.170Z,42.83
2017-11-29T07:23:58.180Z,33.30
2017-11-29T07:25:59.886Z,38.50
2017-11-29T07:28:00.972Z,41.43
2017-11-29T07:30:01.952Z,43.70
2017-11-29T07:32:02.920Z,31.53
2017-11-29T07:34:03.888Z,40.57
2017-11-29T07:36:04.860Z,56.23
2017-11-29T07:38:05.833Z,30.60
2017-11-29T07:40:07.535Z,37.93
2017-11-29T07:42:08.477Z,34.53
2017-11-29T07:44:09.433Z,37.73
2017-11-29T07:46:10.373Z,36.90
2017-11-29T07:48:11.384Z,36.50
2017-11-29T07:50:12.344Z,38.60
2017-11-29T07:52:13.312Z,32.63
2017-11-29T07:54:14.276Z,33.97
2017-11-29T07:56:16.247Z,48.73
2017-11-29T07:58:17.277Z,33.77
2017-11-29T08:00:18.362Z,34.60
2017-11-29T08:02:19.344Z,32.63
2017-11-29T08:04:20.320Z,38.23
2017-11-29T08:06:21.328Z,32.47
2017-11-29T08:08:22.410Z,40.57
2017-11-29T08:10:23.375Z,35.47
2017-11-29T08:12:24.377Z,36.00
2017-11-29T08:14:25.342Z,36.20
2017-11-29T08:16:26.315Z,36.80
2017-11-29T08:18:27.273Z,37.57
2017-11-29T08:20:28.267Z,40.03
2017-11-29T08:22:29.295Z,44.57
2017-11-29T08:24:30.269Z,40.67
2017-11-29T08:26:31.573Z,31.90
2017-11-29T08:28:33.288Z,33.93
2017-11-29T08:30:34.264Z,38.43
2017-11-29T08:32:35.241Z,36.20
2017-11-29T08:34:36.956Z,44.90
2017-11-29T08:36:37.917Z,28.00
2017-11-29T08:38:38.909Z,35.07
2017-11-29T08:40:40.629Z,38.43
2017-11-29T08:42:41.652Z,35.33
2017-11-29T08:44:42.633Z,26.47
2017-11-29T08:46:43.657Z,32.90
2017-11-29T08:48:44.629Z,32.90
2017-11-29T08:50:45.646Z,40.00
2017-11-29T08:52:46.652Z,37.13
2017-11-29T08:54:47.652Z,38.00
2017-11-29T08:56:48.671Z,30.40
2017-11-29T08:58:49.692Z,26.43
2017-11-29T09:00:51.643Z,23.87
2017-11-29T09:02:52.657Z,20.23
2017-11-29T09:04:53.677Z,23.53
2017-11-29T09:06:54.646Z,21.43
2017-11-29T09:08:55.638Z,20.37
2017-11-29T09:10:57.557Z,17.90
2017-11-29T09:12:58.642Z,19.70
2017-11-29T09:14:59.621Z,17.10
2017-11-29T09:17:00.707Z,17.20
2017-11-29T09:19:01.831Z,24.07
2017-11-29T09:21:02.852Z,19.60
2017-11-29T09:23:04.605Z,22.13
2017-11-29T09:25:05.707Z,18.77
2017-11-29T09:27:06.666Z,18.80
2017-11-29T09:29:07.748Z,22.67
2017-11-29T09:31:08.741Z,21.17
2017-11-29T09:33:09.811Z,23.37
2017-11-29T09:35:10.816Z,14.23
2017-11-29T09:37:11.825Z,18.30
2017-11-29T09:39:12.784Z,19.97
2017-11-29T09:41:13.853Z,19.90
2017-11-29T09:43:14.888Z,18.80
2017-11-29T09:45:16.486Z,18.73
2017-11-29T09:47:17.532Z,17.83
2017-11-29T09:49:18.787Z,23.60
2017-11-29T09:51:19.911Z,20.80
2017-11-29T09:53:20.936Z,20.00
2017-11-29T09:55:22.136Z,19.67
2017-11-29T09:57:23.226Z,18.03
2017-11-29T09:59:24.172Z,22.50
2017-11-29T10:01:25.257Z,19.67
2017-11-29T10:03:27.028Z,17.87
2017-11-29T10:05:28.008Z,25.63
2017-11-29T10:07:29.008Z,20.67
2017-11-29T10:09:30.784Z,18.83
2017-11-29T10:11:31.821Z,20.63
2017-11-29T10:13:33.686Z,18.80
2017-11-29T10:15:34.769Z,19.40
2017-11-29T10:17:35.805Z,19.63
2017-11-29T10:19:36.889Z,23.13
2017-11-29T10:21:37.965Z,19.67
2017-11-29T10:23:39.750Z,17.30
2017-11-29T10:25:41.554Z,20.03
2017-11-29T10:27:42.589Z,13.77
2017-11-29T10:29:43.624Z,21.80
2017-11-29T10:31:44.679Z,23.10
2017-11-29T10:33:45.665Z,17.63
2017-11-29T10:35:46.725Z,18.30
2017-11-29T10:37:47.846Z,18.27
2017-11-29T10:39:48.856Z,20.33
2017-11-29T10:41:49.922Z,18.60
2017-11-29T10:43:50.982Z,22.93
2017-11-29T10:45:52.118Z,13.33
2017-11-29T10:47:53.160Z,18.10
2017-11-29T10:49:54.208Z,17.83
2017-11-29T10:51:55.239Z,21.50
2017-11-29T10:53:57.003Z,20.63
2017-11-29T10:55:58.917Z,18.43
2017-11-29T10:58:00.023Z,25.10
2017-11-29T11:00:01.017Z,17.60
2017-11-29T11:02:02.111Z,17.20
2017-11-29T11:04:04.370Z,17.57
2017-11-29T11:06:06.089Z,15.50
2017-11-29T11:08:07.071Z,17.50
2017-11-29T11:10:08.375Z,18.40
2017-11-29T11:12:09.905Z,19.83
2017-11-29T11:14:10.984Z,17.40
2017-11-29T11:16:11.975Z,17.20
2017-11-29T11:18:13.071Z,16.73
2017-11-29T11:20:14.116Z,19.50
2017-11-29T11:22:15.885Z,20.33
2017-11-29T11:24:17.025Z,16.47
2017-11-29T11:26:18.028Z,21.43
2017-11-29T11:28:19.267Z,18.93
2017-11-29T11:30:20.338Z,18.40
2017-11-29T11:32:21.483Z,14.63
2017-11-29T11:34:22.528Z,21.00
2017-11-29T11:36:24.558Z,16.23
2017-11-29T11:38:25.645Z,20.47
2017-11-29T11:40:26.770Z,19.10
2017-11-29T11:42:27.898Z,21.47
2017-11-29T11:44:28.962Z,19.83
2017-11-29T11:46:30.113Z,24.80
2017-11-29T11:48:31.166Z,16.53
2017-11-29T11:50:32.257Z,17.40
2017-11-29T11:52:33.260Z,17.53
2017-11-29T11:54:34.349Z,21.80
2017-11-29T11:56:35.441Z,17.30
2017-11-29T11:58:36.431Z,21.43
2017-11-29T12:00:37.554Z,14.37
2017-11-29T12:02:38.820Z,16.00
2017-11-29T12:04:40.117Z,18.93
2017-11-29T12:06:42.069Z,18.73
2017-11-29T12:08:43.108Z,14.80
2017-11-29T12:10:44.091Z,15.27
2017-11-29T12:12:45.784Z,17.00
2017-11-29T12:14:46.791Z,22.00
2017-11-29T12:16:48.501Z,18.33
2017-11-29T12:18:49.495Z,15.03
2017-11-29T12:20:50.481Z,13.80
2017-11-29T12:22:51.494Z,18.30
2017-11-29T12:24:53.208Z,18.27
2017-11-29T12:26:54.174Z,20.77
2017-11-29T12:28:55.169Z,17.13
2017-11-29T12:30:56.180Z,17.80
2017-11-29T12:32:57.155Z,18.10
2017-11-29T12:34:58.900Z,13.57
2017-11-29T12:36:59.912Z,11.43
2017-11-29T12:39:00.901Z,16.50
2017-11-29T12:41:02.601Z,13.67
2017-11-29T12:43:03.585Z,10.57
2017-11-29T12:45:04.558Z,13.73
2017-11-29T12:47:06.297Z,13.73
2017-11-29T12:49:19.867Z,11.70
2017-11-29T12:51:29.823Z,12.87
2017-11-29T12:53:31.515Z,13.30
2017-11-29T12:55:32.476Z,12.27
2017-11-29T12:57:33.457Z,12.20
2017-11-29T12:59:34.412Z,12.63
2017-11-29T13:01:35.390Z,12.30
2017-11-29T13:03:36.372Z,11.80
2017-11-29T13:05:37.419Z,12.83
2017-11-29T13:07:38.492Z,11.63
2017-11-29T13:09:39.496Z,12.33
2017-11-29T13:11:40.524Z,11.37
2017-11-29T13:13:41.500Z,10.07
2017-11-29T13:15:42.473Z,15.10
2017-11-29T13:17:43.463Z,15.67
2017-11-29T13:19:45.160Z,11.60
2017-11-29T13:21:46.125Z,14.43
2017-11-29T13:23:47.125Z,13.90
2017-11-29T13:25:48.819Z,13.73
2017-11-29T13:27:49.788Z,12.83
2017-11-29T13:29:50.767Z,11.20
2017-11-29T13:31:52.495Z,12.17
2017-11-29T13:33:53.446Z,9.50
2017-11-29T13:35:54.489Z,12.73
2017-11-29T13:37:55.447Z,13.83
2017-11-29T13:39:56.416Z,11.37
2017-11-29T13:41:57.394Z,10.50
2017-11-29T13:43:58.353Z,10.20
2017-11-29T13:45:59.300Z,12.70
2017-11-29T13:48:00.320Z,15.37
2017-11-29T13:50:01.258Z,13.83
2017-11-29T13:52:02.240Z,14.27
2017-11-29T13:54:03.229Z,13.90
2017-11-29T13:56:04.961Z,12.63
2017-11-29T13:58:05.917Z,13.37
2017-11-29T14:00:06.973Z,21.47
2017-11-29T14:02:07.966Z,15.43
2017-11-29T14:04:08.983Z,15.30
2017-11-29T14:06:10.104Z,16.97
2017-11-29T14:08:11.720Z,15.80
2017-11-29T14:10:12.703Z,18.03
2017-11-29T14:12:13.667Z,16.97
2017-11-29T14:14:14.632Z,14.97
2017-11-29T14:16:16.340Z,20.60
2017-11-29T14:18:17.298Z,12.73
2017-11-29T14:20:18.241Z,17.60
2017-11-29T14:22:19.213Z,17.30
2017-11-29T14:24:20.184Z,20.90
2017-11-29T14:26:21.882Z,22.63
2017-11-29T14:28:22.867Z,17.80
2017-11-29T14:30:23.820Z,20.67
2017-11-29T14:32:25.125Z,20.33
2017-11-29T14:34:26.095Z,20.07
2017-11-29T14:36:27.213Z,22.60
2017-11-29T14:38:28.219Z,20.70
2017-11-29T14:40:29.184Z,19.00
2017-11-29T14:42:30.183Z,22.30
2017-11-29T14:44:31.156Z,21.83
2017-11-29T14:46:32.176Z,21.83
2017-11-29T14:48:33.168Z,21.77
2017-11-29T14:50:34.908Z,22.77
2017-11-29T14:52:35.893Z,25.03
2017-11-29T14:54:36.849Z,20.20
2017-11-29T14:56:37.794Z,19.17
2017-11-29T14:58:38.812Z,22.83
2017-11-29T15:00:40.499Z,23.23
2017-11-29T15:02:41.431Z,24.00
2017-11-29T15:04:42.384Z,29.87
2017-11-29T15:06:43.372Z,28.17
2017-11-29T15:08:44.341Z,28.13
2017-11-29T15:10:45.296Z,27.40
2017-11-29T15:12:46.312Z,32.57
2017-11-29T15:14:47.992Z,29.57
2017-11-29T15:16:48.949Z,28.10
2017-11-29T15:18:49.922Z,25.60
2017-11-29T15:20:50.869Z,29.57
2017-11-29T15:22:51.818Z,29.07
2017-11-29T15:24:57.753Z,28.80
2017-11-29T15:26:59.371Z,27.87
2017-11-29T15:29:00.425Z,33.30
2017-11-29T15:31:01.396Z,23.60
2017-11-29T15:33:02.387Z,27.43
2017-11-29T15:35:03.362Z,31.43
2017-11-29T15:39:11.852Z,25.73
2017-11-29T15:41:21.313Z,31.30
2017-11-29T15:43:28.547Z,27.30
2017-11-29T15:45:29.565Z,24.43
2017-11-29T15:47:30.602Z,31.10
2017-11-29T15:49:32.872Z,36.10
2017-11-29T15:51:33.886Z,37.70
2017-11-29T15:53:34.884Z,29.50
2017-11-29T15:55:35.861Z,28.37
2017-11-29T15:57:36.823Z,29.47
2017-11-29T15:59:37.827Z,28.83
2017-11-29T16:01:39.077Z,31.87
2017-11-29T16:03:40.034Z,43.73
2017-11-29T16:05:41.029Z,41.97
2017-11-29T16:07:42.012Z,44.30
2017-11-29T16:09:42.975Z,36.93
2017-11-29T16:11:43.973Z,46.63
2017-11-29T16:13:45.719Z,46.03
2017-11-29T16:15:46.688Z,43.73
2017-11-29T16:17:48.422Z,45.37
2017-11-29T16:19:49.381Z,50.00
2017-11-29T16:21:50.349Z,49.30
2017-11-29T16:23:52.111Z,47.60
2017-11-29T16:25:56.333Z,47.83
2017-11-29T16:27:58.197Z,44.43
2017-11-29T16:29:59.951Z,44.80
2017-11-29T16:32:00.957Z,54.83
2017-11-29T16:34:02.766Z,54.67
2017-11-29T16:36:06.695Z,56.63
2017-11-29T16:38:08.403Z,59.63
2017-11-29T16:40:09.354Z,57.73
2017-11-29T16:42:10.352Z,58.03
2017-11-29T16:44:11.903Z,59.17
2017-11-29T16:46:13.629Z,62.33
2017-11-29T16:48:14.620Z,55.00
2017-11-29T16:50:15.639Z,58.53
2017-11-29T16:52:16.734Z,58.10
2017-11-29T16:54:17.728Z,60.33
2017-11-29T16:56:19.452Z,64.87
2017-11-29T16:58:20.411Z,64.43
2017-11-29T17:00:21.719Z,59.60
2017-11-29T17:02:23.465Z,63.03
2017-11-29T17:04:24.449Z,61.63
2017-11-29T17:06:25.417Z,61.70
2017-11-29T17:08:28.794Z,65.03
2017-11-29T17:10:29.902Z,64.23
2017-11-29T17:12:30.894Z,65.47
2017-11-29T17:14:31.838Z,67.17
2017-11-29T17:16:32.806Z,60.60
2017-11-29T17:18:33.762Z,66.60
2017-11-29T17:20:34.735Z,70.40
2017-11-29T17:22:35.671Z,68.63
2017-11-29T17:24:36.624Z,76.93
2017-11-29T17:26:37.610Z,63.40
2017-11-29T17:28:38.595Z,61.70
2017-11-29T17:30:39.659Z,58.27
2017-11-29T17:32:40.616Z,58.57
2017-11-29T17:34:41.569Z,62.57
2017-11-29T17:36:42.526Z,65.37
2017-11-29T17:38:44.233Z,60.87
2017-11-29T17:40:45.214Z,67.37
2017-11-29T17:42:46.181Z,66.30
2017-11-29T17:44:47.911Z,66.90
2017-11-29T17:46:48.856Z,68.27
2017-11-29T17:48:49.828Z,74.20
2017-11-29T17:50:50.793Z,65.10
2017-11-29T17:52:51.797Z,61.13
2017-11-29T17:54:52.786Z,65.70
2017-11-29T17:56:54.506Z,65.47
2017-11-29T17:58:55.556Z,56.53
2017-11-29T18:00:56.547Z,59.67
2017-11-29T18:02:57.516Z,70.73
2017-11-29T18:04:58.484Z,62.90
2017-11-29T18:06:59.434Z,65.27
2017-11-29T18:09:00.436Z,61.57
2017-11-29T18:11:01.403Z,65.63
2017-11-29T18:13:02.349Z,68.30
2017-11-29T18:15:03.320Z,63.93
2017-11-29T18:17:04.264Z,60.97
2017-11-29T18:19:05.857Z,61.57
2017-11-29T18:21:07.635Z,64.00
2017-11-29T18:23:09.360Z,75.47
2017-11-29T18:25:10.372Z,77.03
2017-11-29T18:27:11.420Z,64.10
2017-11-29T18:29:12.559Z,71.83
2017-11-29T18:31:13.541Z,69.83
2017-11-29T18:33:14.476Z,68.77
2017-11-29T18:35:15.439Z,65.63
2017-11-29T18:37:16.394Z,55.63
2017-11-29T18:39:17.360Z,57.47
2017-11-29T18:41:18.325Z,54.60
2017-11-29T18:43:19.284Z,59.63
2017-11-29T18:45:20.244Z,61.13
2017-11-29T18:47:21.227Z,54.87
2017-11-29T18:49:22.196Z,70.70
2017-11-29T18:51:23.948Z,73.13
2017-11-29T18:53:24.924Z,64.73
2017-11-29T18:55:26.633Z,64.83
2017-11-29T18:57:28.124Z,81.73
2017-11-29T18:59:29.828Z,89.33
2017-11-29T19:01:30.798Z,79.37
2017-11-29T19:03:31.796Z,90.20
2017-11-29T19:05:33.516Z,98.63
2017-11-29T19:07:34.512Z,117.77
2017-11-29T19:09:35.477Z,92.73
2017-11-29T19:11:36.457Z,88.83
2017-11-29T19:13:37.423Z,88.57
2017-11-29T19:15:38.397Z,91.87
2017-11-29T19:17:39.373Z,95.20
2017-11-29T19:19:40.365Z,87.03
2017-11-29T19:21:42.078Z,86.13
2017-11-29T19:23:46.807Z,97.13
2017-11-29T19:25:47.969Z,84.30
2017-11-29T19:27:48.942Z,100.50
2017-11-29T19:29:49.915Z,90.10
2017-11-29T19:31:51.628Z,101.10
2017-11-29T19:33:52.608Z,87.77
2017-11-29T19:35:53.556Z,88.20
2017-11-29T19:37:54.488Z,86.63
2017-11-29T19:39:55.452Z,93.07
2017-11-29T19:41:56.438Z,94.70
2017-11-29T19:43:57.467Z,91.13
2017-11-29T19:45:58.439Z,108.40
2017-11-29T19:47:59.452Z,98.23
2017-11-29T19:50:00.432Z,107.17
2017-11-29T19:52:01.385Z,94.13
2017-11-29T19:54:02.375Z,90.60
2017-11-29T19:56:03.353Z,90.53
2017-11-29T19:58:04.343Z,111.03
2017-11-29T20:00:05.313Z,90.93
2017-11-29T20:02:07.048Z,102.27
2017-11-29T20:04:08.010Z,98.43
2017-11-29T20:06:09.048Z,113.50
2017-11-29T20:08:10.042Z,96.27
2017-11-29T20:10:11.082Z,111.07
2017-11-29T20:12:12.093Z,99.60
2017-11-29T20:14:13.055Z,108.03
2017-11-29T20:16:13.985Z,108.50
2017-11-29T20:18:15.010Z,85.87
2017-11-29T20:20:15.996Z,100.13
2017-11-29T20:22:16.969Z,97.27
2017-11-29T20:24:17.966Z,94.73
2017-11-29T20:26:18.949Z,104.67
2017-11-29T20:28:20.641Z,93.73
2017-11-29T20:30:21.634Z,98.47
2017-11-29T20:32:22.785Z,103.77
2017-11-29T20:34:23.781Z,94.50
2017-11-29T20:36:24.821Z,102.33
2017-11-29T20:38:25.782Z,101.43
2017-11-29T20:40:26.767Z,113.73
2017-11-29T20:42:27.701Z,108.80
2017-11-29T20:44:28.670Z,102.70
2017-11-29T20:46:29.658Z,120.80
2017-11-29T20:48:30.663Z,114.07
2017-11-29T20:50:31.630Z,122.47
2017-11-29T20:52:45.855Z,110.70
2017-11-29T20:54:47.871Z,106.90
2017-11-29T20:56:48.836Z,104.27
2017-11-29T20:58:49.802Z,104.37
2017-11-29T21:00:50.760Z,99.30
2017-11-29T21:02:51.726Z,101.07
2017-11-29T21:04:52.678Z,94.60
2017-11-29T21:06:54.397Z,99.37
2017-11-29T21:08:55.365Z,114.30
2017-11-29T21:10:56.474Z,84.50
2017-11-29T21:12:57.511Z,84.20
2017-11-29T21:14:58.500Z,90.30
2017-11-29T21:16:59.533Z,90.07
2017-11-29T21:19:00.562Z,75.60
2017-11-29T21:21:01.539Z,82.67
2017-11-29T21:23:02.598Z,78.83
2017-11-29T21:25:03.652Z,86.67
2017-11-29T21:27:05.532Z,82.13
2017-11-29T21:29:07.291Z,87.00
2017-11-29T21:31:08.268Z,92.23
2017-11-29T21:33:09.268Z,80.33
2017-11-29T21:35:10.304Z,83.60
2017-11-29T21:37:11.332Z,75.33
2017-11-29T21:39:12.430Z,78.83
2017-11-29T21:41:13.394Z,74.60
2017-11-29T21:43:14.412Z,73.40
2017-11-29T21:45:16.208Z,77.53
2017-11-29T21:47:17.220Z,66.87
2017-11-29T21:49:18.189Z,77.03
2017-11-29T21:51:19.179Z,75.57
2017-11-29T21:53:20.143Z,78.87
2017-11-29T21:55:21.136Z,66.07
2017-11-29T21:57:22.757Z,67.20
2017-11-29T21:59:23.737Z,67.23
2017-11-29T22:01:24.733Z,78.27
2017-11-29T22:03:25.733Z,77.57
2017-11-29T22:05:26.785Z,65.00
2017-11-29T22:07:27.796Z,71.63
2017-11-29T22:09:28.810Z,78.13
2017-11-29T22:11:29.820Z,74.27
2017-11-29T22:13:30.850Z,71.20
2017-11-29T22:15:32.576Z,70.50
2017-11-29T22:17:33.606Z,71.80
2017-11-29T22:19:34.578Z,71.23
2017-11-29T22:21:35.708Z,76.47
2017-11-29T22:23:36.691Z,66.83
2017-11-29T22:25:37.805Z,72.70
2017-11-29T22:27:39.031Z,75.30
2017-11-29T22:29:40.172Z,70.83
2017-11-29T22:31:41.264Z,74.33
2017-11-29T22:33:42.393Z,93.43
2017-11-29T22:35:44.256Z,78.70
2017-11-29T22:37:45.660Z,77.90
2017-11-29T22:39:46.884Z,81.67
2017-11-29T22:41:48.701Z,81.20
2017-11-29T22:43:50.912Z,72.07
2017-11-29T22:45:52.135Z,77.93
2017-11-29T22:47:53.130Z,67.43
2017-11-29T22:49:54.084Z,75.27
2017-11-29T22:51:55.138Z,73.73
2017-11-29T22:53:56.117Z,77.63
2017-11-29T22:55:57.109Z,83.93
2017-11-29T22:57:58.076Z,83.67
2017-11-29T22:59:59.041Z,83.63
2017-11-29T23:02:00.037Z,75.50
2017-11-29T23:04:01.037Z,75.43
2017-11-29T23:06:02.009Z,80.17
2017-11-29T23:08:03.302Z,85.93
2017-11-29T23:10:04.317Z,82.37
2017-11-29T23:12:05.269Z,91.47
2017-11-29T23:14:06.233Z,98.57
2017-11-29T23:16:07.212Z,88.13
2017-11-29T23:18:08.175Z,89.17
2017-11-29T23:20:09.958Z,94.90
2017-11-29T23:22:10.936Z,86.87
2017-11-29T23:24:11.871Z,88.50
2017-11-29T23:26:12.932Z,84.73
2017-11-29T23:28:13.908Z,92.07
2017-11-29T23:30:15.628Z,91.93
2017-11-29T23:32:16.595Z,89.50
2017-11-29T23:34:17.566Z,82.97
2017-11-29T23:36:18.513Z,84.93
2017-11-29T23:38:19.471Z,89.60
2017-11-29T23:40:21.194Z,91.83
2017-11-29T23:42:22.161Z,86.13
2017-11-29T23:44:23.101Z,91.13
2017-11-29T23:46:24.182Z,87.90
2017-11-29T23:48:25.898Z,93.53
2017-11-29T23:50:26.883Z,99.17
2017-11-29T23:52:27.866Z,83.97
2017-11-29T23:54:28.844Z,102.27
2017-11-29T23:56:29.845Z,88.63
2017-11-29T23:58:30.806Z,91.13
